Time;durP1;ratioP1;P1;durP2;ratioP2;P2;SDS_P1;SDS_P2;PMS_P1;PMS_P2;Temp;Humidity;BMP_temperature;BMP_pressure;BME280_temperature;BME280_humidity;BME280_pressure;Samples;Min_cycle;Max_cycle;Signal;HPM_P1;HPM_P2
2022/03/16 05:53:25;;;;;;;;;;;;;;;8.51;81.09;97498.81;4247592;27;10325;-63
2022/03/16 05:55:27;;;;;;;;;;;;;;;8.49;81.02;97498.94;4230789;28;5608;-63
2022/03/16 05:57:29;;;;;;;;;;;;;;;8.52;80.71;97496.00;4230493;28;5662;-62
2022/03/16 05:59:31;;;;;;;;;;;;;;;8.54;80.67;97494.03;4231020;28;5672;-62
2022/03/16 06:01:32;;;;;;;;;;;;;;;8.60;80.79;97495.19;4220017;28;5722;-62
2022/03/16 06:03:34;;;;;;;;;;;;;;;8.66;80.48;97499.81;4220258;28;5846;-62
2022/03/16 06:05:36;;;;;;;;;;;;;;;8.69;80.21;97500.28;4213782;28;5777;-63
2022/03/16 06:07:38;;;;;;;;;;;;;;;8.78;79.84;97492.41;4217941;28;5634;-63
2022/03/16 06:09:40;;;;;;;;;;;;;;;8.70;79.87;97501.13;4224308;28;5737;-63
2022/03/16 06:11:42;;;;;;;;;;;;;;;8.72;79.99;97488.59;4202806;28;5950;-62
2022/03/16 06:13:44;;;;;;;;;;;;;;;8.84;79.32;97492.56;4227071;28;5620;-63
2022/03/16 06:15:46;;;;;;;;;;;;;;;8.88;79.29;97498.34;4222703;28;5639;-63
2022/03/16 06:17:48;;;;;;;;;;;;;;;8.98;79.07;97499.00;4229802;28;5635;-62
2022/03/16 06:19:49;;;;;;;;;;;;;;;8.99;78.75;97493.56;4230712;28;5612;-62
2022/03/16 06:21:51;;;;;;;;;;;;;;;8.98;79.06;97493.72;4228156;28;5813;-62
2022/03/16 06:23:53;;;;;;;;;;;;;;;8.99;79.10;97485.63;4230720;28;5691;-63
2022/03/16 06:25:54;;;;;;;;;;;;;;;9.01;78.76;97488.94;4227306;28;5647;-62
2022/03/16 06:27:56;;;;;;;;;;;;;;;9.08;79.01;97493.56;4219874;28;6592;-63
2022/03/16 06:29:58;;;;;;;;;;;;;;;9.08;78.99;97497.00;4222672;28;5619;-62
2022/03/16 06:31:59;;;;;;;;;;;;;;;9.13;78.76;97492.03;4227880;28;5616;-62
2022/03/16 06:34:02;;;;;;;;;;;;;;;9.14;78.75;97496.31;4229466;28;5687;-62
2022/03/16 06:36:03;;;;;;;;;;;;;;;9.11;78.92;97491.41;4220757;28;5721;-62
2022/03/16 06:38:05;;;;;;;;;;;;;;;9.10;78.74;97497.66;4213753;28;5631;-62
2022/03/16 06:40:07;;;;;;;;;;;;;;;9.09;79.25;97501.28;4226546;28;5544;-62
2022/03/16 06:42:09;;;;;;;;;;;;;;;9.07;79.15;97500.63;4218636;28;5638;-63
2022/03/16 06:44:11;;;;;;;;;;;;;;;9.09;78.90;97497.84;4216875;28;5616;-62
2022/03/16 06:46:13;;;;;;;;;;;;;;;9.09;79.21;97498.66;4222053;28;5212;-62
2022/03/16 06:48:14;;;;;;;;;;;;;;;9.13;78.84;97496.50;4228967;28;5822;-63
2022/03/16 06:50:18;;;;;;;;;;;;;;;9.17;79.06;97501.25;4229636;28;5524;-62
2022/03/16 06:52:20;;;;;;;;;;;;;;;9.21;78.68;97489.41;4226342;28;5786;-62
2022/03/16 06:54:21;;;;;;;;;;;;;;;9.24;79.03;97493.50;4204104;28;5738;-63
2022/03/16 06:56:23;;;;;;;;;;;;;;;9.20;79.04;97500.94;4206436;28;5746;-62
2022/03/16 06:58:25;;;;;;;;;;;;;;;9.24;79.16;97502.25;4215716;28;5620;-62
2022/03/16 07:00:26;;;;;;;;;;;;;;;9.23;79.26;97497.97;4212714;28;5627;-62
2022/03/16 07:02:28;;;;;;;;;;;;;;;9.13;79.55;97502.59;4212502;28;5435;-62
2022/03/16 07:04:30;;;;;;;;;;;;;;;8.93;80.89;97491.56;4183752;28;7754;-63
2022/03/16 07:06:33;;;;;;;;;;;;;;;9.04;80.38;97493.03;4214403;28;5820;-62
2022/03/16 07:08:35;;;;;;;;;;;;;;;9.25;79.14;97495.16;4215320;28;5143;-62
2022/03/16 07:10:38;;;;;;;;;;;;;;;9.33;79.00;97500.44;4218810;28;8430;-62
2022/03/16 07:12:43;;;;;;;;;;;;;;;9.39;78.67;97494.47;4217488;28;5739;-62
2022/03/16 07:14:46;;;;;;;;;;;;;;;9.48;78.02;97500.56;4212472;28;5088;-62
2022/03/16 07:16:48;;;;;;;;;;;;;;;9.44;78.09;97500.06;4211278;28;7150;-62
2022/03/16 07:18:50;;;;;;;;;;;;;;;9.49;77.62;97503.03;4201627;28;5626;-62
2022/03/16 07:20:52;;;;;;;;;;;;;;;9.57;77.18;97502.19;4209057;28;5664;-62
2022/03/16 07:23:23;;;;;;;;;;;;;;;9.44;77.67;97499.25;4208590;28;5783;-64
2022/03/16 07:25:25;;;;;;;;;;;;;;;9.50;77.98;97495.94;4191031;28;5644;-62
2022/03/16 07:27:27;;;;;;;;;;;;;;;9.43;77.75;97500.25;4217275;28;5640;-62
2022/03/16 07:29:28;;;;;;;;;;;;;;;9.40;78.24;97504.06;4215793;28;5643;-62
2022/03/16 07:31:30;;;;;;;;;;;;;;;9.49;78.41;97503.03;4215095;28;5806;-62
2022/03/16 07:33:32;;;;;;;;;;;;;;;9.63;77.98;97504.97;4214358;28;5654;-62
2022/03/16 07:35:35;;;;;;;;;;;;;;;9.75;77.99;97502.81;4211700;28;5813;-62
2022/03/16 07:37:42;;;;;;;;;;;;;;;9.77;77.89;97506.09;4215735;28;5623;-63
2022/03/16 07:39:44;;;;;;;;;;;;;;;9.75;78.28;97507.25;4214801;28;5635;-63
2022/03/16 07:41:45;;;;;;;;;;;;;;;9.81;78.22;97504.75;4212414;28;5833;-62
2022/03/16 07:43:47;;;;;;;;;;;;;;;9.81;78.01;97501.28;4212313;28;5660;-62
2022/03/16 07:45:49;;;;;;;;;;;;;;;9.81;78.43;97496.81;4213958;28;5634;-62
2022/03/16 07:47:53;;;;;;;;;;;;;;;9.89;78.23;97488.06;4215378;28;5632;-63
2022/03/16 07:49:56;;;;;;;;;;;;;;;9.87;78.08;97493.50;4217012;28;5628;-62
2022/03/16 07:51:58;;;;;;;;;;;;;;;9.92;77.91;97493.81;4216324;28;5767;-63
2022/03/16 07:53:59;;;;;;;;;;;;;;;9.97;77.84;97495.13;4215957;28;5747;-63
2022/03/16 07:56:02;;;;;;;;;;;;;;;9.95;78.18;97502.38;4216666;28;5652;-63
2022/03/16 07:58:03;;;;;;;;;;;;;;;9.88;78.22;97505.72;4215556;28;5731;-63
2022/03/16 08:00:08;;;;;;;;;;;;;;;9.92;78.12;97501.72;4215902;28;5616;-63
2022/03/16 08:02:14;;;;;;;;;;;;;;;9.77;78.80;97503.44;4210463;28;5627;-63
2022/03/16 08:04:15;;;;;;;;;;;;;;;9.84;78.56;97507.03;4212339;28;5640;-63
2022/03/16 08:06:17;;;;;;;;;;;;;;;9.93;77.78;97507.84;4214338;28;5620;-63
2022/03/16 08:08:24;;;;;;;;;;;;;;;9.85;77.89;97508.72;4213659;28;5769;-63
2022/03/16 08:10:26;;;;;;;;;;;;;;;9.79;78.87;97509.38;4212452;28;6349;-63
2022/03/16 08:12:28;;;;;;;;;;;;;;;9.89;78.38;97515.28;4215840;28;5635;-63
2022/03/16 08:14:30;;;;;;;;;;;;;;;9.83;78.61;97515.13;4211207;28;5628;-63
2022/03/16 08:16:32;;;;;;;;;;;;;;;9.91;78.79;97510.66;4209230;28;5722;-63
2022/03/16 08:18:34;;;;;;;;;;;;;;;9.75;79.21;97518.66;4214496;28;5631;-63
2022/03/16 08:20:36;;;;;;;;;;;;;;;10.01;78.32;97520.19;4216128;28;5624;-63
2022/03/16 08:22:38;;;;;;;;;;;;;;;9.76;78.56;97519.47;4212590;28;5699;-63
2022/03/16 08:24:39;;;;;;;;;;;;;;;9.87;78.79;97522.56;4209761;28;6510;-63
2022/03/16 08:26:52;;;;;;;;;;;;;;;9.79;79.29;97522.56;4213491;28;5711;-63
2022/03/16 08:28:56;;;;;;;;;;;;;;;10.02;78.84;97525.31;4216594;28;5629;-63
2022/03/16 08:30:58;;;;;;;;;;;;;;;10.18;78.34;97519.09;4213340;28;5876;-64
2022/03/16 08:33:01;;;;;;;;;;;;;;;10.26;78.17;97534.97;4211666;28;5714;-63
2022/03/16 08:35:05;;;;;;;;;;;;;;;10.40;77.60;97534.22;4194922;28;5916;-63
2022/03/16 08:37:06;;;;;;;;;;;;;;;10.40;77.55;97536.84;4211140;28;5714;-63
2022/03/16 08:39:12;;;;;;;;;;;;;;;10.47;77.45;97529.88;4213647;28;7243;-64
2022/03/16 08:41:14;;;;;;;;;;;;;;;10.26;78.27;97537.59;4213157;28;5644;-63
2022/03/16 08:43:15;;;;;;;;;;;;;;;9.89;79.93;97535.59;4210976;28;5644;-63
2022/03/16 08:45:17;;;;;;;;;;;;;;;9.85;80.20;97540.41;4213077;28;5635;-64
2022/03/16 08:47:21;;;;;;;;;;;;;;;9.98;79.83;97546.97;4211492;28;5763;-63
2022/03/16 08:49:22;;;;;;;;;;;;;;;9.96;80.23;97539.19;4212055;28;6283;-64
2022/03/16 08:51:24;;;;;;;;;;;;;;;10.12;80.04;97541.78;4211761;28;5731;-62
2022/03/16 08:53:26;;;;;;;;;;;;;;;10.37;79.35;97539.03;4201575;28;5791;-64
2022/03/16 08:55:28;;;;;;;;;;;;;;;10.50;78.78;97542.75;4197529;28;5885;-64
2022/03/16 08:57:32;;;;;;;;;;;;;;;10.52;79.12;97539.09;4194835;28;5651;-63
2022/03/16 08:59:34;;;;;;;;;;;;;;;10.66;78.57;97543.66;4202390;28;5701;-64
2022/03/16 09:01:36;;;;;;;;;;;;;;;10.58;79.17;97547.19;4216502;28;5700;-62
2022/03/16 09:03:38;;;;;;;;;;;;;;;10.63;79.00;97549.28;4197471;28;5778;-66
2022/03/16 09:05:40;;;;;;;;;;;;;;;10.47;78.90;97545.75;4208245;28;5808;-62
2022/03/16 09:07:43;;;;;;;;;;;;;;;10.14;80.59;97542.41;4208364;28;5794;-64
2022/03/16 09:09:45;;;;;;;;;;;;;;;10.24;79.78;97542.25;4209232;28;5723;-63
2022/03/16 09:11:47;;;;;;;;;;;;;;;10.35;79.12;97539.22;4210471;28;5889;-64
2022/03/16 09:13:49;;;;;;;;;;;;;;;10.44;79.01;97535.53;4208480;28;5737;-63
2022/03/16 09:15:51;;;;;;;;;;;;;;;10.38;79.37;97538.84;4212651;28;5843;-63
2022/03/16 09:17:53;;;;;;;;;;;;;;;10.08;79.63;97544.91;4210124;28;5874;-62
2022/03/16 09:19:55;;;;;;;;;;;;;;;10.20;79.61;97539.09;4211628;28;5876;-61
2022/03/16 09:22:00;;;;;;;;;;;;;;;10.28;77.89;97546.19;4190340;28;5845;-61
2022/03/16 09:24:02;;;;;;;;;;;;;;;10.30;75.75;97538.06;4210223;28;5722;-61
2022/03/16 09:26:05;;;;;;;;;;;;;;;10.06;74.68;97533.69;4211567;28;5786;-66
2022/03/16 09:28:08;;;;;;;;;;;;;;;10.21;74.69;97534.63;4205315;28;5710;-61
2022/03/16 09:30:10;;;;;;;;;;;;;;;10.28;74.01;97543.53;4209396;28;5714;-62
2022/03/16 09:32:13;;;;;;;;;;;;;;;10.41;73.04;97538.50;4208985;28;6460;-63
2022/03/16 09:34:15;;;;;;;;;;;;;;;10.43;72.35;97539.19;4207776;28;5910;-60
2022/03/16 09:36:18;;;;;;;;;;;;;;;10.60;72.96;97537.25;4205370;28;5821;-61
2022/03/16 09:38:20;;;;;;;;;;;;;;;10.72;72.04;97537.66;4186745;28;5975;-60
2022/03/16 09:40:21;;;;;;;;;;;;;;;10.58;69.33;97528.66;4210333;28;5710;-62
2022/03/16 09:42:25;;;;;;;;;;;;;;;10.42;70.98;97532.25;4211339;28;5718;-59
2022/03/16 09:44:30;;;;;;;;;;;;;;;10.50;70.65;97531.34;4203297;28;5932;-61
2022/03/16 09:46:36;;;;;;;;;;;;;;;10.48;70.63;97542.09;4207971;28;5699;-62
2022/03/16 09:48:43;;;;;;;;;;;;;;;10.69;71.22;97535.38;4210566;28;5726;-61
2022/03/16 09:50:45;;;;;;;;;;;;;;;10.76;71.40;97541.63;4210559;28;5770;-60
2022/03/16 09:52:48;;;;;;;;;;;;;;;10.84;71.35;97546.00;4210810;28;5828;-61
2022/03/16 09:54:50;;;;;;;;;;;;;;;10.50;70.18;97539.28;4211965;28;5703;-61
2022/03/16 09:56:53;;;;;;;;;;;;;;;10.56;71.21;97529.84;4208535;28;5707;-62
2022/03/16 09:58:55;;;;;;;;;;;;;;;10.74;71.21;97531.19;4202532;28;6925;-60
2022/03/16 10:00:57;;;;;;;;;;;;;;;10.84;70.55;97530.97;4204257;28;5105;-61
2022/03/16 10:03:02;;;;;;;;;;;;;;;10.79;69.58;97530.69;4209571;28;5716;-64
2022/03/16 10:05:09;;;;;;;;;;;;;;;10.70;70.97;97526.44;4211112;28;5766;-67
2022/03/16 10:07:11;;;;;;;;;;;;;;;10.61;71.22;97525.66;4203134;28;5710;-63
2022/03/16 10:14:07;;;;;;;;;;;;;;;10.60;73.14;97517.91;4207670;28;5899;-65
2022/03/16 10:16:10;;;;;;;;;;;;;;;10.72;73.97;97521.78;4204283;28;5753;-64
2022/03/16 10:18:17;;;;;;;;;;;;;;;10.76;74.95;97520.47;4211918;28;5823;-61
2022/03/16 10:20:32;;;;;;;;;;;;;;;10.67;77.42;97517.03;4211551;28;5715;-67
2022/03/16 10:22:38;;;;;;;;;;;;;;;10.50;78.36;97516.31;4198438;28;5821;-60
2022/03/16 10:24:41;;;;;;;;;;;;;;;10.75;77.41;97513.50;4210369;28;5726;-60
2022/03/16 10:26:52;;;;;;;;;;;;;;;10.75;77.53;97524.91;4212605;28;5084;-62
2022/03/16 10:29:01;;;;;;;;;;;;;;;10.84;77.09;97530.13;4214851;28;5766;-61
2022/03/16 10:31:07;;;;;;;;;;;;;;;10.86;76.61;97528.97;4211730;28;5786;-61
2022/03/16 10:33:14;;;;;;;;;;;;;;;10.63;76.38;97522.84;4211861;28;5128;-65
2022/03/16 10:35:15;;;;;;;;;;;;;;;10.76;76.23;97516.00;4213363;28;5726;-61
2022/03/16 10:37:20;;;;;;;;;;;;;;;10.84;75.81;97517.72;4214360;28;5704;-60
2022/03/16 10:39:36;;;;;;;;;;;;;;;10.66;74.62;97523.34;4210035;28;6102;-62
2022/03/16 10:48:38;;;;;;;;;;;;;;;11.12;73.47;97506.63;4202800;28;5831;-65
2022/03/16 10:50:43;;;;;;;;;;;;;;;10.94;74.17;97499.81;4206633;28;5860;-62
2022/03/16 10:52:47;;;;;;;;;;;;;;;11.10;74.22;97498.84;4206808;28;5966;-62
2022/03/16 10:54:48;;;;;;;;;;;;;;;11.08;73.99;97491.06;4208804;28;5762;-63
2022/03/16 10:56:52;;;;;;;;;;;;;;;11.11;73.62;97489.91;4210595;28;5731;-61
2022/03/16 10:58:55;;;;;;;;;;;;;;;11.12;74.29;97480.97;4208573;28;5786;-62
2022/03/16 11:00:57;;;;;;;;;;;;;;;11.17;73.56;97473.31;4208313;28;5719;-62
2022/03/16 11:03:05;;;;;;;;;;;;;;;11.06;73.30;97477.22;4212216;28;5774;-61
2022/03/16 11:05:08;;;;;;;;;;;;;;;11.22;73.52;97475.44;4213463;28;5823;-63
2022/03/16 11:07:11;;;;;;;;;;;;;;;11.29;72.82;97465.75;4213379;28;5801;-63
2022/03/16 11:09:15;;;;;;;;;;;;;;;10.87;73.08;97469.75;4212176;28;5632;-64
2022/03/16 11:13:38;;;;;;;;;;;;;;;11.30;71.44;97465.56;4215438;28;5810;-63
2022/03/16 11:15:40;;;;;;;;;;;;;;;11.27;71.26;97459.81;4214253;28;5830;-67
2022/03/16 11:17:43;;;;;;;;;;;;;;;11.28;71.12;97466.75;4216458;28;5956;-62
2022/03/16 11:19:48;;;;;;;;;;;;;;;11.23;71.67;97461.19;4214662;28;6463;-62
2022/03/16 11:22:04;;;;;;;;;;;;;;;11.31;71.04;97463.72;4214243;28;5611;-62
2022/03/16 11:24:16;;;;;;;;;;;;;;;11.42;71.33;97460.63;4214487;28;5738;-63
2022/03/16 11:26:25;;;;;;;;;;;;;;;11.41;70.70;97456.34;4215030;28;5735;-63
2022/03/16 11:28:39;;;;;;;;;;;;;;;11.47;70.59;97458.28;4212674;28;5738;-63
2022/03/16 11:30:42;;;;;;;;;;;;;;;11.49;70.76;97461.56;4211449;28;5837;-63
2022/03/16 11:32:48;;;;;;;;;;;;;;;11.58;71.17;97455.19;4211386;28;5730;-62
2022/03/16 11:35:00;;;;;;;;;;;;;;;11.61;71.17;97453.97;4211146;28;5703;-62
2022/03/16 11:37:05;;;;;;;;;;;;;;;11.48;70.30;97451.97;4205859;28;5725;-63
2022/03/16 11:39:43;;;;;;;;;;;;;;;11.67;70.78;97458.56;4208485;28;5845;-62
2022/03/16 11:42:06;;;;;;;;;;;;;;;11.75;70.30;97444.38;4206632;28;5837;-63
2022/03/16 11:44:25;;;;;;;;;;;;;;;11.82;69.75;97454.09;4209256;28;5714;-63
2022/03/16 11:46:31;;;;;;;;;;;;;;;11.88;69.66;97450.69;4206150;28;5787;-64
2022/03/16 11:48:37;;;;;;;;;;;;;;;11.88;69.47;97449.88;4215121;28;5695;-63
2022/03/16 11:51:13;;;;;;;;;;;;;;;11.80;68.90;97444.69;4197882;28;5773;-62
2022/03/16 11:53:17;;;;;;;;;;;;;;;11.91;68.44;97434.44;4204016;28;5703;-59
2022/03/16 11:55:38;;;;;;;;;;;;;;;11.85;67.72;97439.66;4207137;28;5738;-61
2022/03/16 11:57:54;;;;;;;;;;;;;;;11.79;68.95;97432.44;4207292;28;5905;-64
2022/03/16 12:00:10;;;;;;;;;;;;;;;11.78;69.04;97433.41;4212396;28;5767;-64
2022/03/16 12:02:18;;;;;;;;;;;;;;;11.63;67.85;97434.25;4208204;28;5631;-63
2022/03/16 12:04:45;;;;;;;;;;;;;;;11.66;67.99;97431.25;4211863;28;5754;-64
2022/03/16 12:07:02;;;;;;;;;;;;;;;11.74;67.33;97432.97;4215340;28;6400;-64
2022/03/16 12:09:04;;;;;;;;;;;;;;;11.57;67.36;97432.34;4214203;28;5699;-64
2022/03/16 12:13:26;;;;;;;;;;;;;;;11.65;68.67;97419.00;4214406;28;5715;-65
2022/03/16 12:15:39;;;;;;;;;;;;;;;11.51;67.33;97419.84;4214074;28;5718;-64
2022/03/16 12:17:41;;;;;;;;;;;;;;;11.22;66.96;97412.72;4214352;28;5723;-64
2022/03/16 12:19:43;;;;;;;;;;;;;;;11.28;67.05;97409.34;4214252;28;5710;-64
2022/03/16 12:21:46;;;;;;;;;;;;;;;11.40;66.78;97414.19;4214279;28;5703;-65
2022/03/16 12:23:52;;;;;;;;;;;;;;;11.54;67.90;97400.09;4214221;28;5695;-67
2022/03/16 12:25:54;;;;;;;;;;;;;;;11.66;67.01;97399.47;4214590;28;5714;-65
2022/03/16 12:30:56;;;;;;;;;;;;;;;11.47;68.06;97384.16;4175853;28;5652;-68
2022/03/16 12:32:58;;;;;;;;;;;;;;;11.63;67.82;97386.56;4211707;28;5719;-65
2022/03/16 12:35:02;;;;;;;;;;;;;;;11.58;68.41;97381.03;4209416;28;5719;-65
2022/03/16 12:37:10;;;;;;;;;;;;;;;11.69;68.43;97379.75;4213181;28;5624;-65
2022/03/16 12:39:13;;;;;;;;;;;;;;;11.68;68.49;97369.34;4211627;28;5738;-65
2022/03/16 12:43:40;;;;;;;;;;;;;;;11.90;67.09;97357.81;4212691;28;5730;-65
2022/03/16 12:45:42;;;;;;;;;;;;;;;11.98;67.66;97355.00;4213673;28;5765;-65
2022/03/16 12:47:55;;;;;;;;;;;;;;;12.03;66.85;97362.41;4214451;28;5715;-66
2022/03/16 12:50:01;;;;;;;;;;;;;;;11.96;66.20;97362.34;4208347;28;6299;-65
2022/03/16 12:52:03;;;;;;;;;;;;;;;11.95;65.61;97355.41;4208949;28;6466;-65
2022/03/16 12:54:06;;;;;;;;;;;;;;;11.98;66.35;97343.59;4212734;28;5808;-66
2022/03/16 12:56:15;;;;;;;;;;;;;;;12.04;65.45;97341.03;4213975;28;5734;-67
2022/03/16 12:58:24;;;;;;;;;;;;;;;12.06;66.04;97335.53;4210564;28;5774;-65
2022/03/16 13:00:32;;;;;;;;;;;;;;;12.09;66.86;97341.25;4213058;28;5794;-65
2022/03/16 13:02:35;;;;;;;;;;;;;;;12.02;66.59;97342.22;4213888;28;5718;-65
2022/03/16 13:04:38;;;;;;;;;;;;;;;11.94;65.99;97338.69;4213851;28;5855;-64
2022/03/16 13:06:41;;;;;;;;;;;;;;;11.94;66.03;97330.72;4213317;28;5734;-64
2022/03/16 13:08:46;;;;;;;;;;;;;;;11.85;66.40;97323.09;4207233;28;5738;-65
2022/03/16 13:11:15;;;;;;;;;;;;;;;11.99;66.34;97327.50;4213612;28;5718;-65
2022/03/16 13:13:19;;;;;;;;;;;;;;;12.09;66.51;97314.75;4207349;28;5360;-66
2022/03/16 13:15:25;;;;;;;;;;;;;;;12.17;65.82;97312.00;4204290;28;7794;-66
2022/03/16 13:17:37;;;;;;;;;;;;;;;12.10;66.13;97308.44;4211503;28;8485;-66
2022/03/16 13:19:41;;;;;;;;;;;;;;;12.18;65.45;97312.81;4209261;28;5710;-66
2022/03/16 13:21:43;;;;;;;;;;;;;;;12.29;65.61;97308.81;4194384;28;5850;-66
2022/03/16 13:23:46;;;;;;;;;;;;;;;12.28;65.80;97310.66;4212595;28;5727;-66
2022/03/16 13:25:48;;;;;;;;;;;;;;;12.32;65.79;97313.72;4210702;28;5719;-66
2022/03/16 13:27:51;;;;;;;;;;;;;;;12.34;65.37;97311.72;4212785;28;5723;-65
2022/03/16 13:29:55;;;;;;;;;;;;;;;12.31;65.39;97306.78;4212287;28;5715;-66
2022/03/16 13:32:05;;;;;;;;;;;;;;;12.26;65.04;97303.91;4212750;28;5763;-66
2022/03/16 13:34:09;;;;;;;;;;;;;;;12.28;64.96;97308.00;4213241;28;5817;-66
2022/03/16 13:36:15;;;;;;;;;;;;;;;12.12;65.31;97300.34;4210272;28;5714;-66
2022/03/16 13:38:29;;;;;;;;;;;;;;;12.08;66.69;97296.41;4213013;28;6349;-66
2022/03/16 13:40:38;;;;;;;;;;;;;;;12.11;66.59;97296.84;4212278;28;6487;-66
2022/03/16 13:42:42;;;;;;;;;;;;;;;12.07;66.59;97297.41;4206521;28;5749;-64
2022/03/16 13:44:49;;;;;;;;;;;;;;;12.07;66.57;97295.59;4210397;28;5850;-62
2022/03/16 13:46:50;;;;;;;;;;;;;;;11.98;66.55;97286.13;4211134;28;5714;-65
2022/03/16 13:48:56;;;;;;;;;;;;;;;12.11;66.62;97286.22;4206477;28;5636;-65
2022/03/16 13:50:58;;;;;;;;;;;;;;;12.10;66.93;97276.66;4209903;28;5857;-64
2022/03/16 13:53:12;;;;;;;;;;;;;;;12.22;67.19;97271.66;4212304;28;5097;-64
2022/03/16 13:55:14;;;;;;;;;;;;;;;12.32;66.80;97279.28;4212203;28;5702;-63
2022/03/16 13:57:22;;;;;;;;;;;;;;;12.31;67.12;97272.34;4189083;28;5926;-64
2022/03/16 13:59:28;;;;;;;;;;;;;;;12.38;67.01;97270.56;4196422;28;6325;-63
2022/03/16 14:01:38;;;;;;;;;;;;;;;12.39;66.40;97267.72;4207992;28;5861;-67
2022/03/16 14:03:40;;;;;;;;;;;;;;;12.40;66.52;97264.03;4212363;28;5616;-65
2022/03/16 14:05:43;;;;;;;;;;;;;;;12.40;65.82;97260.56;4215027;28;5611;-69
2022/03/16 14:07:49;;;;;;;;;;;;;;;12.46;66.12;97257.16;4206404;28;5701;-63
2022/03/16 14:09:53;;;;;;;;;;;;;;;12.38;66.01;97265.25;4208131;28;6413;-67
2022/03/16 14:11:55;;;;;;;;;;;;;;;12.39;65.93;97266.91;4215349;28;5785;-65
2022/03/16 14:13:57;;;;;;;;;;;;;;;12.45;65.74;97268.75;4210445;28;5667;-65
2022/03/16 14:16:14;;;;;;;;;;;;;;;12.38;65.21;97262.59;4213868;28;5743;-66
2022/03/16 14:18:17;;;;;;;;;;;;;;;12.33;64.84;97251.75;4216922;28;5710;-66
2022/03/16 14:20:30;;;;;;;;;;;;;;;12.24;65.05;97253.75;4212081;28;5761;-67
2022/03/16 14:22:32;;;;;;;;;;;;;;;12.32;65.23;97250.09;4215472;28;6036;-67
2022/03/16 14:24:34;;;;;;;;;;;;;;;12.36;65.57;97252.19;4210875;28;5824;-66
2022/03/16 14:26:36;;;;;;;;;;;;;;;12.06;65.90;97256.03;4211060;28;5624;-70
2022/03/16 14:28:38;;;;;;;;;;;;;;;12.05;66.32;97249.91;4207104;28;5726;-74
2022/03/16 14:30:48;;;;;;;;;;;;;;;12.19;65.58;97243.69;4205049;28;5723;-71
2022/03/16 14:32:52;;;;;;;;;;;;;;;12.12;65.82;97252.63;4212419;28;5733;-69
2022/03/16 14:34:54;;;;;;;;;;;;;;;12.14;65.82;97238.16;4208956;28;5643;-66
2022/03/16 14:36:56;;;;;;;;;;;;;;;12.19;65.49;97238.41;4203634;28;5746;-62
2022/03/16 14:39:06;;;;;;;;;;;;;;;12.29;65.93;97234.59;4212886;28;5937;-69
2022/03/16 14:41:08;;;;;;;;;;;;;;;12.24;65.74;97236.00;4215454;28;5718;-65
2022/03/16 14:43:11;;;;;;;;;;;;;;;12.15;65.90;97231.84;4210401;28;5761;-63
2022/03/16 14:45:13;;;;;;;;;;;;;;;12.06;66.62;97230.34;4199326;28;5804;-63
2022/03/16 14:47:15;;;;;;;;;;;;;;;12.03;66.61;97229.91;4211098;28;5714;-64
2022/03/16 14:49:17;;;;;;;;;;;;;;;12.08;66.54;97233.63;4211682;28;5903;-64
2022/03/16 14:51:19;;;;;;;;;;;;;;;11.91;66.38;97224.31;4209361;28;5749;-64
2022/03/16 14:53:22;;;;;;;;;;;;;;;12.04;66.28;97231.56;4206320;28;5627;-64
2022/03/16 14:55:25;;;;;;;;;;;;;;;12.07;66.33;97237.28;4206875;28;6415;-65
2022/03/16 14:57:27;;;;;;;;;;;;;;;12.05;66.20;97233.19;4214926;28;5747;-65
2022/03/16 14:59:29;;;;;;;;;;;;;;;11.88;66.86;97228.16;4214084;28;5708;-66
2022/03/16 15:01:31;;;;;;;;;;;;;;;12.05;66.47;97222.59;4215684;28;5254;-65
2022/03/16 15:03:33;;;;;;;;;;;;;;;12.04;66.61;97224.41;4214618;28;7716;-66
2022/03/16 15:05:35;;;;;;;;;;;;;;;11.73;67.57;97223.91;4212873;28;5643;-62
2022/03/16 15:07:37;;;;;;;;;;;;;;;11.87;67.38;97225.69;4216157;28;6183;-62
2022/03/16 15:09:38;;;;;;;;;;;;;;;12.01;66.76;97222.16;4213288;28;5715;-63
2022/03/16 15:11:40;;;;;;;;;;;;;;;12.10;66.49;97225.47;4215116;28;5726;-63
2022/03/16 15:13:42;;;;;;;;;;;;;;;12.14;65.87;97222.25;4213766;28;5814;-67
2022/03/16 15:15:44;;;;;;;;;;;;;;;12.07;66.55;97224.03;4210932;28;5747;-67
2022/03/16 15:17:46;;;;;;;;;;;;;;;12.04;66.44;97223.59;4213261;28;6451;-68
2022/03/16 15:19:48;;;;;;;;;;;;;;;11.91;66.57;97221.66;4210870;28;5714;-62
2022/03/16 15:21:50;;;;;;;;;;;;;;;11.83;67.01;97225.25;4208298;28;5727;-63
2022/03/16 15:23:52;;;;;;;;;;;;;;;11.60;67.53;97230.72;4214843;28;5635;-65
2022/03/16 15:25:53;;;;;;;;;;;;;;;11.92;66.61;97218.81;4213660;28;5806;-65
2022/03/16 15:27:58;;;;;;;;;;;;;;;11.90;66.52;97217.38;4214437;28;5827;-64
2022/03/16 15:30:00;;;;;;;;;;;;;;;11.90;66.95;97220.03;4213918;28;5702;-65
2022/03/16 15:32:04;;;;;;;;;;;;;;;12.03;66.40;97214.84;4211989;28;5722;-63
2022/03/16 15:34:07;;;;;;;;;;;;;;;12.06;66.73;97209.16;4196221;28;5864;-63
2022/03/16 15:36:10;;;;;;;;;;;;;;;12.11;66.96;97217.31;4210260;28;5746;-62
2022/03/16 15:38:12;;;;;;;;;;;;;;;12.14;66.96;97216.97;4213215;28;5148;-62
2022/03/16 15:42:47;;;;;;;;;;;;;;;12.18;67.16;97212.91;4214236;28;5726;-68
2022/03/16 15:44:50;;;;;;;;;;;;;;;12.04;67.38;97219.13;4198795;28;5721;-67
2022/03/16 15:46:52;;;;;;;;;;;;;;;11.87;67.83;97215.91;4203377;28;5733;-65
2022/03/16 15:48:54;;;;;;;;;;;;;;;12.04;67.53;97216.47;4211270;28;5735;-68
2022/03/16 15:50:56;;;;;;;;;;;;;;;12.05;67.82;97214.63;4213726;28;5723;-69
2022/03/16 15:52:57;;;;;;;;;;;;;;;12.06;67.98;97214.44;4203560;28;5096;-63
2022/03/16 15:55:01;;;;;;;;;;;;;;;12.13;67.51;97206.56;4212822;28;5850;-63
2022/03/16 15:57:02;;;;;;;;;;;;;;;11.98;68.08;97219.88;4214118;28;5707;-64
2022/03/16 15:59:04;;;;;;;;;;;;;;;11.97;68.57;97222.72;4214960;28;5719;-64
2022/03/16 16:01:06;;;;;;;;;;;;;;;11.89;69.01;97213.06;4196060;28;6645;-66
2022/03/16 16:03:08;;;;;;;;;;;;;;;12.03;68.76;97217.50;4211585;28;5765;-66
2022/03/16 16:05:10;;;;;;;;;;;;;;;12.06;68.62;97211.78;4213189;28;5780;-66
2022/03/16 16:07:17;;;;;;;;;;;;;;;11.99;68.76;97213.56;4213946;28;5907;-64
2022/03/16 16:09:20;;;;;;;;;;;;;;;11.89;69.30;97213.06;4208337;28;6505;-62
2022/03/16 16:11:22;;;;;;;;;;;;;;;11.97;69.04;97218.25;4211748;28;6459;-60
2022/03/16 16:13:25;;;;;;;;;;;;;;;11.91;69.28;97213.72;4190838;28;5874;-62
2022/03/16 16:15:27;;;;;;;;;;;;;;;11.86;69.40;97216.09;4212135;28;5720;-62
2022/03/16 16:17:35;;;;;;;;;;;;;;;11.86;68.91;97226.69;4212847;28;5834;-61
2022/03/16 16:19:38;;;;;;;;;;;;;;;11.83;69.13;97224.44;4212165;28;5731;-62
2022/03/16 16:21:40;;;;;;;;;;;;;;;11.83;69.06;97219.97;4211643;28;5663;-62
2022/03/16 16:23:43;;;;;;;;;;;;;;;11.79;68.93;97228.47;4211143;28;5838;-63
2022/03/16 16:25:44;;;;;;;;;;;;;;;11.74;68.88;97222.91;4212934;28;5710;-62
2022/03/16 16:27:46;;;;;;;;;;;;;;;11.73;69.30;97230.03;4211024;28;5827;-62
2022/03/16 16:29:48;;;;;;;;;;;;;;;11.75;69.04;97232.47;4207174;28;5774;-63
2022/03/16 16:31:49;;;;;;;;;;;;;;;11.66;69.42;97227.31;4211996;28;5673;-62
2022/03/16 16:33:53;;;;;;;;;;;;;;;11.55;70.41;97226.97;4208783;28;5869;-64
2022/03/16 16:35:57;;;;;;;;;;;;;;;11.65;70.15;97230.13;4203293;28;5753;-62
2022/03/16 16:37:59;;;;;;;;;;;;;;;11.64;70.12;97221.38;4207738;28;5834;-61
2022/03/16 16:40:01;;;;;;;;;;;;;;;11.78;69.95;97227.66;4205348;28;5805;-63
2022/03/16 16:44:24;;;;;;;;;;;;;;;11.84;69.62;97234.03;4200652;28;7277;-61
2022/03/16 16:46:28;;;;;;;;;;;;;;;11.80;70.22;97238.88;4206635;28;5778;-63
2022/03/16 16:48:30;;;;;;;;;;;;;;;11.73;70.58;97247.75;4213750;28;5113;-61
2022/03/16 16:50:32;;;;;;;;;;;;;;;11.38;71.89;97240.47;4211533;28;5725;-62
2022/03/16 16:52:34;;;;;;;;;;;;;;;11.45;71.76;97240.56;4207840;28;5719;-61
2022/03/16 16:54:37;;;;;;;;;;;;;;;11.55;71.24;97229.63;4212981;28;5722;-62
2022/03/16 16:56:38;;;;;;;;;;;;;;;11.74;70.75;97236.13;4213929;28;5766;-62
2022/03/16 16:58:42;;;;;;;;;;;;;;;11.85;70.04;97235.66;4195460;28;5939;-61
2022/03/16 17:00:45;;;;;;;;;;;;;;;11.84;70.16;97244.63;4212632;28;5743;-62
2022/03/16 17:02:51;;;;;;;;;;;;;;;11.86;70.02;97245.25;4211493;28;6325;-62
2022/03/16 17:04:53;;;;;;;;;;;;;;;11.74;70.04;97244.91;4210178;28;5823;-62
2022/03/16 17:06:57;;;;;;;;;;;;;;;11.83;69.92;97246.44;4212278;28;5620;-62
2022/03/16 17:09:07;;;;;;;;;;;;;;;11.83;70.19;97250.94;4214165;28;5710;-61
2022/03/16 17:11:10;;;;;;;;;;;;;;;11.88;70.11;97245.88;4211152;28;5088;-61
2022/03/16 17:13:29;;;;;;;;;;;;;;;11.91;70.15;97243.69;4211755;28;5806;-63
2022/03/16 17:15:31;;;;;;;;;;;;;;;11.88;70.08;97240.56;4191210;28;5888;-62
2022/03/16 17:17:33;;;;;;;;;;;;;;;11.94;69.92;97242.47;4213457;28;5890;-63